Portada
METAR-TAF:

METAR-TAF

Aeroports :

Yap, Micronèsia

latitud: 09-29N, longitud: 138-05E, altitud: 28 m

Observació

L'informe es va fer fa 1 hora i 8 minuts, a les 18:50 UTC
Vent 3 kt amb direcció variable
Temperatura 27°C
Humitat 84%
Pressió 1009 hPa
Visibilitat: 19.3 km
Escasses núvols a una alçada de 1600 ft
Núvols disperses a una alçada de 30000 ft

METAR: PTYA 211850Z VRB03KT 12SM FEW016 SCT300 27/24 A2979 RMK SLP090 T02660237

Hora: 05:58 (19:58 UTC)

Pronòstic

L'informe es va fer fa 2 hores i 24 minuts, a les 17:34 UTC
Pronòstic vàlid del 21 a les 18 UTC al 22 a les 18 UTC
Vent 11 kt del Est/Nord-Est
Visibilitat: 10 km
Núvols disperses a una alçada de 1500 ft
Núvols disperses a una alçada de 5000 ft
A partir de les 22 a les 0400 UTC
Vent 11 kt del Est/Nord-Est
Visibilitat: 10 km
Núvols disperses a una alçada de 1500 ft
Núvols disperses a una alçada de 5000 ft
xàfecs en les proximitats

TAF: PTYA 211734Z 2118/2218 07011KT P6SM SCT015 SCT050 FM220400 07011KT P6SM VCSH SCT015 SCT050

Observacions i pronòstics meteorològics de més de 4000 aeroports (METAR i TAF).

Les estacions disponibles són els punts grocs i vermells al mapa.

Posi el ratolí al punt desitjat per veure el nom de l'estació.

Feu clic per veure les observacions i els pronòstics meteorològics.

Per canviar el mapa: feu clic els botons verds amb una creu de color negre per apropar; al botó verd amb un guió per allunyar la imatge; o en les fletxes verdes per a mapes adjacents.


METAR-TAF: